createdAt,value
2022-09-28T00:02:24.632Z,99709.50
2022-09-28T00:04:51.483Z,99710.22
2022-09-28T00:07:18.596Z,99701.09
2022-09-28T00:09:45.418Z,99707.81
2022-09-28T00:12:12.235Z,99708.25
2022-09-28T00:14:40.688Z,99701.94
2022-09-28T00:17:08.436Z,99705.47
2022-09-28T00:19:35.236Z,99702.38
2022-09-28T00:22:02.232Z,99694.53
2022-09-28T00:24:29.731Z,99695.38
2022-09-28T00:26:57.298Z,99696.97
2022-09-28T00:29:27.027Z,99689.50
2022-09-28T00:31:57.316Z,99684.97
2022-09-28T00:34:24.097Z,99690.47
2022-09-28T00:36:51.137Z,99684.06
2022-09-28T00:39:18.369Z,99685.53
2022-09-28T00:41:45.969Z,99686.28
2022-09-28T00:44:25.450Z,99690.09
2022-09-28T00:46:52.636Z,99688.22
2022-09-28T00:49:22.820Z,99677.69
2022-09-28T00:51:49.671Z,99687.66
2022-09-28T00:54:17.208Z,99688.50
2022-09-28T00:56:45.982Z,99690.56
2022-09-28T00:59:13.332Z,99694.09
2022-09-28T01:01:40.348Z,99686.06
2022-09-28T01:04:07.452Z,99690.28
2022-09-28T01:06:36.346Z,99687.38
2022-09-28T01:09:04.759Z,99683.66
2022-09-28T01:11:32.414Z,99684.84
2022-09-28T01:13:59.628Z,99680.50
2022-09-28T01:16:33.933Z,99682.63
2022-09-28T01:19:13.114Z,99678.34
2022-09-28T01:21:50.872Z,99675.00
2022-09-28T01:24:21.722Z,99676.94
2022-09-28T01:27:04.758Z,99673.69
2022-09-28T01:29:36.226Z,99669.47
2022-09-28T01:32:05.988Z,99676.22
2022-09-28T01:34:43.782Z,99673.69
2022-09-28T01:37:13.256Z,99667.16
2022-09-28T01:39:43.283Z,99662.69
2022-09-28T01:42:17.517Z,99667.16
2022-09-28T01:44:47.137Z,99663.91
2022-09-28T01:47:15.331Z,99662.13
2022-09-28T01:49:45.472Z,99672.09
2022-09-28T01:52:21.706Z,99672.06
2022-09-28T01:54:48.957Z,99667.72
2022-09-28T01:57:39.273Z,99664.34
2022-09-28T02:00:12.101Z,99658.28
2022-09-28T02:02:44.743Z,99661.19
2022-09-28T02:05:31.718Z,99660.31
2022-09-28T02:08:09.862Z,99656.78
2022-09-28T02:10:42.557Z,99656.59
2022-09-28T02:13:16.525Z,99651.91
2022-09-28T02:15:50.875Z,99647.94
2022-09-28T02:18:18.131Z,99647.22
2022-09-28T02:20:49.837Z,99649.53
2022-09-28T02:23:17.558Z,99644.69
2022-09-28T02:25:49.936Z,99650.94
2022-09-28T02:28:16.743Z,99646.19
2022-09-28T02:30:44.535Z,99651.50
2022-09-28T02:33:33.145Z,99645.63
2022-09-28T02:36:00.892Z,99643.47
2022-09-28T02:38:27.888Z,99643.00
2022-09-28T02:41:07.273Z,99641.81
2022-09-28T02:43:50.096Z,99636.56
2022-09-28T02:46:35.117Z,99638.47
2022-09-28T02:49:21.731Z,99635.94
2022-09-28T02:52:09.180Z,99631.44
2022-09-28T02:54:42.167Z,99635.44
2022-09-28T02:57:27.948Z,99631.06
2022-09-28T03:00:08.136Z,99633.00
2022-09-28T03:02:39.128Z,99639.81
2022-09-28T03:05:15.843Z,99630.41
2022-09-28T03:07:42.590Z,99630.66
2022-09-28T03:10:09.545Z,99633.56
2022-09-28T03:12:37.392Z,99627.53
2022-09-28T03:15:12.796Z,99620.97
2022-09-28T03:17:39.822Z,99620.38
2022-09-28T03:20:06.851Z,99612.84
2022-09-28T03:22:33.705Z,99624.38
2022-09-28T03:25:00.682Z,99616.34
2022-09-28T03:27:27.449Z,99611.31
2022-09-28T03:29:54.190Z,99605.06
2022-09-28T03:32:21.168Z,99605.91
2022-09-28T03:34:47.890Z,99612.06
2022-09-28T03:37:14.717Z,99608.47
2022-09-28T03:39:41.719Z,99610.28
2022-09-28T03:42:08.565Z,99614.16
2022-09-28T03:44:35.499Z,99614.66
2022-09-28T03:47:02.602Z,99612.59
2022-09-28T03:49:29.383Z,99613.56
2022-09-28T03:51:56.215Z,99611.88
2022-09-28T03:54:23.459Z,99614.22
2022-09-28T03:56:50.442Z,99612.13
2022-09-28T03:59:17.385Z,99609.97
2022-09-28T04:01:44.479Z,99601.22
2022-09-28T04:04:14.594Z,99607.91
2022-09-28T04:06:41.459Z,99607.72
2022-09-28T04:09:08.460Z,99598.50
2022-09-28T04:11:53.209Z,99602.78
2022-09-28T04:14:22.520Z,99597.47
2022-09-28T04:16:49.475Z,99593.31
2022-09-28T04:19:16.246Z,99590.00
2022-09-28T04:21:43.312Z,99580.97
2022-09-28T04:24:10.800Z,99583.28
2022-09-28T04:26:37.612Z,99587.69
2022-09-28T04:29:16.840Z,99588.91
2022-09-28T04:31:48.342Z,99579.94
2022-09-28T04:34:17.549Z,99575.34
2022-09-28T04:36:44.839Z,99572.13
2022-09-28T04:39:12.464Z,99568.88
2022-09-28T04:41:39.508Z,99562.41
2022-09-28T04:44:06.526Z,99563.56
2022-09-28T04:46:33.767Z,99566.69
2022-09-28T04:49:00.959Z,99561.25
2022-09-28T04:51:30.302Z,99559.78
2022-09-28T04:53:57.002Z,99574.41
2022-09-28T04:56:23.955Z,99579.53
2022-09-28T04:58:52.891Z,99568.75
2022-09-28T05:01:23.704Z,99576.28
2022-09-28T05:03:54.209Z,99581.72
2022-09-28T05:06:22.808Z,99580.75
2022-09-28T05:08:49.584Z,99580.75
2022-09-28T05:11:16.972Z,99581.59
2022-09-28T05:13:45.634Z,99579.38
2022-09-28T05:16:13.476Z,99584.28
2022-09-28T05:18:40.460Z,99590.97
2022-09-28T05:21:14.518Z,99588.66
2022-09-28T05:23:46.450Z,99592.22
2022-09-28T05:26:13.427Z,99593.69
2022-09-28T05:28:40.138Z,99599.78
2022-09-28T05:31:07.283Z,99606.03
2022-09-28T05:33:34.172Z,99603.31
2022-09-28T05:36:01.873Z,99604.31
2022-09-28T05:38:30.253Z,99603.47
2022-09-28T05:40:57.772Z,99611.00
2022-09-28T05:43:24.937Z,99614.47
2022-09-28T05:45:55.602Z,99615.28
2022-09-28T05:48:23.066Z,99615.88
2022-09-28T05:50:53.140Z,99613.47
2022-09-28T05:53:20.447Z,99609.72
2022-09-28T05:55:47.436Z,99621.25
2022-09-28T05:58:14.311Z,99628.53
2022-09-28T06:00:41.487Z,99621.34
2022-09-28T06:03:10.566Z,99627.22
2022-09-28T06:05:39.538Z,99623.44
2022-09-28T06:08:08.423Z,99623.34
2022-09-28T06:10:36.026Z,99618.72
2022-09-28T06:13:02.907Z,99616.22
2022-09-28T06:15:31.184Z,99617.09
2022-09-28T06:17:57.981Z,99610.72
2022-09-28T06:20:25.633Z,99607.06
2022-09-28T06:22:55.903Z,99603.59
2022-09-28T06:25:23.406Z,99606.41
2022-09-28T06:27:57.444Z,99604.31
2022-09-28T06:30:27.293Z,99615.41
2022-09-28T06:32:55.164Z,99601.91
2022-09-28T06:35:22.427Z,99595.56
2022-09-28T06:37:49.745Z,99598.19
2022-09-28T06:40:16.853Z,99595.25
2022-09-28T06:42:43.776Z,99596.63
2022-09-28T06:45:13.647Z,99597.97
2022-09-28T06:47:41.992Z,99596.75
2022-09-28T06:50:12.405Z,99598.66
2022-09-28T06:52:39.467Z,99591.72
2022-09-28T06:55:06.648Z,99593.31
2022-09-28T06:57:33.660Z,99592.56
2022-09-28T07:00:00.772Z,99590.41
2022-09-28T07:02:27.578Z,99596.94
2022-09-28T07:04:54.325Z,99597.09
2022-09-28T07:07:21.314Z,99589.50
2022-09-28T07:09:51.300Z,99584.28
2022-09-28T07:12:20.915Z,99586.81
2022-09-28T07:14:50.478Z,99580.75
2022-09-28T07:17:17.525Z,99583.97
2022-09-28T07:19:44.637Z,99583.13
2022-09-28T07:22:18.480Z,99570.72
2022-09-28T07:24:46.083Z,99575.53
2022-09-28T07:27:13.391Z,99566.09
2022-09-28T07:29:40.125Z,99566.31
2022-09-28T07:32:08.547Z,99564.22
2022-09-28T07:34:43.664Z,99568.78
2022-09-28T07:37:11.807Z,99574.47
2022-09-28T07:39:57.964Z,99581.47
2022-09-28T07:42:26.364Z,99576.09
2022-09-28T07:44:54.208Z,99582.69
2022-09-28T07:47:30.840Z,99575.59
2022-09-28T07:50:00.999Z,99569.91
2022-09-28T07:52:28.945Z,99577.75
2022-09-28T07:54:57.535Z,99566.88
2022-09-28T07:57:24.581Z,99575.59
2022-09-28T07:59:53.729Z,99573.81
2022-09-28T08:02:21.250Z,99578.72
2022-09-28T08:04:48.921Z,99564.91
2022-09-28T08:07:20.424Z,99561.28
2022-09-28T08:09:49.915Z,99567.44
2022-09-28T08:12:19.776Z,99572.50
2022-09-28T08:14:46.961Z,99566.25
2022-09-28T08:17:13.966Z,99559.28
2022-09-28T08:20:13.095Z,99564.66
2022-09-28T08:22:40.214Z,99562.03
2022-09-28T08:25:07.363Z,99561.75
2022-09-28T08:27:34.192Z,99559.31
2022-09-28T08:30:01.166Z,99554.44
2022-09-28T08:32:28.319Z,99555.59
2022-09-28T08:34:56.183Z,99561.19
2022-09-28T08:37:23.192Z,99560.31
2022-09-28T08:39:49.900Z,99561.97
2022-09-28T08:42:32.648Z,99561.06
2022-09-28T08:45:07.300Z,99570.59
2022-09-28T08:47:56.337Z,99569.41
2022-09-28T08:50:28.843Z,99575.75
2022-09-28T08:52:59.439Z,99575.72
2022-09-28T08:55:33.851Z,99584.31
2022-09-28T08:58:09.744Z,99569.78
2022-09-28T09:00:39.941Z,99574.06
2022-09-28T09:03:09.880Z,99570.53
2022-09-28T09:05:51.806Z,99569.78
2022-09-28T09:08:26.991Z,99569.75
2022-09-28T09:10:59.759Z,99573.94
2022-09-28T09:13:45.915Z,99567.72
2022-09-28T09:16:28.509Z,99571.34
2022-09-28T09:19:15.385Z,99573.44
2022-09-28T09:22:10.051Z,99574.44
2022-09-28T09:24:45.594Z,99569.28
2022-09-28T09:27:18.540Z,99572.56
2022-09-28T09:29:54.706Z,99570.31
2022-09-28T09:32:27.507Z,99566.13
2022-09-28T09:34:58.009Z,99567.91
2022-09-28T09:37:42.972Z,99571.94
2022-09-28T09:40:28.804Z,99567.31
2022-09-28T09:43:01.416Z,99568.84
2022-09-28T09:45:34.797Z,99575.28
2022-09-28T09:48:07.687Z,99562.63
2022-09-28T09:50:43.686Z,99557.88
2022-09-28T09:53:17.062Z,99569.84
2022-09-28T09:55:45.616Z,99561.63
2022-09-28T09:58:16.293Z,99569.00
2022-09-28T10:00:45.520Z,99559.28
2022-09-28T10:03:23.541Z,99565.63
2022-09-28T10:05:54.541Z,99561.78
2022-09-28T10:08:23.896Z,99569.94
2022-09-28T10:10:53.186Z,99565.84
2022-09-28T10:13:20.244Z,99569.13
2022-09-28T10:15:47.940Z,99565.88
2022-09-28T10:18:16.202Z,99563.78
2022-09-28T10:20:45.229Z,99570.38
2022-09-28T10:23:20.366Z,99567.09
2022-09-28T10:25:49.383Z,99568.72
2022-09-28T10:28:19.693Z,99564.63
2022-09-28T10:30:46.783Z,99567.28
2022-09-28T10:33:35.035Z,99567.81
2022-09-28T10:36:07.113Z,99556.25
2022-09-28T10:38:34.354Z,99559.91
2022-09-28T10:41:02.148Z,99559.94
2022-09-28T10:43:34.684Z,99551.88
2022-09-28T10:46:12.318Z,99550.94
2022-09-28T10:48:40.065Z,99555.25
2022-09-28T10:51:07.666Z,99561.34
2022-09-28T10:53:37.245Z,99562.22
2022-09-28T10:56:04.376Z,99561.16
2022-09-28T10:58:39.580Z,99554.16
2022-09-28T11:01:09.706Z,99547.44
2022-09-28T11:03:41.801Z,99549.25
2022-09-28T11:06:08.975Z,99552.75
2022-09-28T11:08:40.553Z,99542.81
2022-09-28T11:11:09.127Z,99555.34
2022-09-28T11:13:47.336Z,99548.47
2022-09-28T11:16:32.921Z,99555.25
2022-09-28T11:19:20.779Z,99551.41
2022-09-28T11:21:47.652Z,99543.69
2022-09-28T11:24:18.873Z,99552.94
2022-09-28T11:26:48.130Z,99551.94
2022-09-28T11:29:22.717Z,99547.91
2022-09-28T11:31:49.640Z,99553.09
2022-09-28T11:34:31.062Z,99550.75
2022-09-28T11:37:08.358Z,99546.47
2022-09-28T11:39:38.831Z,99543.22
2022-09-28T11:42:16.516Z,99546.28
2022-09-28T11:44:48.420Z,99542.69
2022-09-28T11:47:33.720Z,99534.75
2022-09-28T11:50:27.227Z,99537.53
2022-09-28T11:53:04.034Z,99530.16
2022-09-28T11:55:33.816Z,99537.97
2022-09-28T11:58:04.356Z,99536.81
2022-09-28T12:00:33.619Z,99537.09
2022-09-28T12:03:05.368Z,99540.84
2022-09-28T12:05:39.304Z,99541.03
2022-09-28T12:08:14.965Z,99541.72
2022-09-28T12:11:02.003Z,99542.41
2022-09-28T12:13:33.412Z,99539.63
2022-09-28T12:16:23.426Z,99544.19
2022-09-28T12:18:51.234Z,99539.31
2022-09-28T12:21:18.012Z,99537.25
2022-09-28T12:23:45.259Z,99537.13
2022-09-28T12:26:21.665Z,99541.44
2022-09-28T12:28:49.898Z,99547.28
2022-09-28T12:31:32.136Z,99549.16
2022-09-28T12:33:59.199Z,99549.66
2022-09-28T12:36:35.959Z,99550.88
2022-09-28T12:39:31.347Z,99556.59
2022-09-28T12:42:12.116Z,99554.94
2022-09-28T12:44:48.244Z,99553.03
2022-09-28T12:47:35.519Z,99546.59
2022-09-28T12:53:02.926Z,99558.59
2022-09-28T12:55:38.541Z,99548.63
2022-09-28T12:58:08.736Z,99546.59
2022-09-28T13:00:59.481Z,99553.84
2022-09-28T13:03:32.677Z,99547.25
2022-09-28T13:05:59.437Z,99554.16
2022-09-28T13:08:29.333Z,99553.50
2022-09-28T13:10:56.640Z,99559.28
2022-09-28T13:13:26.604Z,99552.13
2022-09-28T13:16:05.869Z,99565.31
2022-09-28T13:18:39.116Z,99563.59
2022-09-28T13:21:44.846Z,99560.91
2022-09-28T13:24:31.468Z,99563.88
2022-09-28T13:27:04.621Z,99560.25
2022-09-28T13:29:32.193Z,99568.31
2022-09-28T13:32:00.131Z,99566.56
2022-09-28T13:34:28.856Z,99562.88
2022-09-28T13:37:11.363Z,99571.13
2022-09-28T13:39:44.301Z,99576.22
2022-09-28T13:42:26.613Z,99576.47
2022-09-28T13:45:12.327Z,99572.44
2022-09-28T13:47:55.228Z,99574.69
2022-09-28T13:50:34.543Z,99578.50
2022-09-28T13:53:17.188Z,99588.13
2022-09-28T13:55:59.084Z,99587.06
2022-09-28T13:58:26.068Z,99581.84
2022-09-28T14:01:14.440Z,99585.78
2022-09-28T14:03:57.361Z,99586.03
2022-09-28T14:06:28.282Z,99590.00
2022-09-28T14:09:13.741Z,99592.47
2022-09-28T14:11:42.623Z,99594.63
2022-09-28T14:14:12.120Z,99593.09
2022-09-28T14:16:39.638Z,99592.13
2022-09-28T14:19:18.818Z,99600.59
2022-09-28T14:21:58.345Z,99599.13
2022-09-28T14:24:27.441Z,99603.06
2022-09-28T14:27:03.535Z,99602.09
2022-09-28T14:29:32.209Z,99603.28
2022-09-28T14:32:04.778Z,99599.63
2022-09-28T14:34:37.957Z,99607.81
2022-09-28T14:37:35.665Z,99617.09
2022-09-28T14:40:27.505Z,99613.31
2022-09-28T14:43:14.019Z,99611.03
2022-09-28T14:45:44.864Z,99615.88
2022-09-28T14:48:13.979Z,99612.75
2022-09-28T14:50:40.838Z,99616.50
2022-09-28T14:53:13.563Z,99621.75
2022-09-28T14:55:50.263Z,99622.09
2022-09-28T14:58:27.718Z,99618.91
2022-09-28T15:01:07.621Z,99618.72
2022-09-28T15:03:35.637Z,99612.41
2022-09-28T15:06:02.843Z,99620.25
2022-09-28T15:08:37.448Z,99621.47
2022-09-28T15:11:04.859Z,99626.78
2022-09-28T15:13:32.204Z,99631.28
2022-09-28T15:16:11.587Z,99628.94
2022-09-28T15:18:43.957Z,99632.38
2022-09-28T15:21:12.105Z,99628.41
2022-09-28T15:23:40.585Z,99635.31
2022-09-28T15:26:18.655Z,99641.81
2022-09-28T15:28:45.635Z,99645.81
2022-09-28T15:31:25.699Z,99635.91
2022-09-28T15:34:11.651Z,99640.56
2022-09-28T15:36:40.243Z,99643.44
2022-09-28T15:39:14.083Z,99639.53
2022-09-28T15:41:42.814Z,99644.22
2022-09-28T15:44:12.856Z,99649.97
2022-09-28T15:46:41.482Z,99646.69
2022-09-28T15:49:20.596Z,99650.88
2022-09-28T15:51:50.119Z,99655.31
2022-09-28T15:54:21.703Z,99649.94
2022-09-28T15:56:59.713Z,99647.00
2022-09-28T15:59:27.162Z,99644.41
2022-09-28T16:02:09.645Z,99662.41
2022-09-28T16:04:43.101Z,99653.22
2022-09-28T16:07:12.825Z,99653.41
2022-09-28T16:10:01.561Z,99661.28
2022-09-28T16:12:33.451Z,99660.59
2022-09-28T16:15:05.317Z,99657.59
2022-09-28T16:17:35.188Z,99661.88
2022-09-28T16:20:05.711Z,99668.94
2022-09-28T16:22:32.822Z,99663.78
2022-09-28T16:25:00.991Z,99670.59
2022-09-28T16:27:27.985Z,99672.22
2022-09-28T16:30:05.276Z,99680.78
2022-09-28T16:32:52.756Z,99677.34
2022-09-28T16:35:27.252Z,99682.94
2022-09-28T16:38:09.399Z,99683.59
2022-09-28T16:40:39.880Z,99686.72
2022-09-28T16:43:08.004Z,99686.28
2022-09-28T16:45:37.645Z,99679.69
2022-09-28T16:48:04.605Z,99684.81
2022-09-28T16:50:31.565Z,99688.91
2022-09-28T16:53:17.889Z,99682.41
2022-09-28T16:55:46.166Z,99684.84
2022-09-28T16:58:13.211Z,99689.91
2022-09-28T17:00:42.984Z,99694.19
2022-09-28T17:03:18.429Z,99687.06
2022-09-28T17:05:46.034Z,99692.72
2022-09-28T17:08:15.769Z,99696.41
2022-09-28T17:11:09.707Z,99696.72
2022-09-28T17:13:34.151Z,99697.16
2022-09-28T17:16:03.292Z,99697.66
2022-09-28T17:18:33.459Z,99693.28
2022-09-28T17:21:03.378Z,99705.22
2022-09-28T17:23:30.311Z,99702.78
2022-09-28T17:25:59.186Z,99696.00
2022-09-28T17:28:28.466Z,99703.75
2022-09-28T17:30:55.449Z,99705.97
2022-09-28T17:33:22.490Z,99703.44
2022-09-28T17:35:51.771Z,99707.84
2022-09-28T17:38:18.576Z,99701.66
2022-09-28T17:40:48.318Z,99703.75
2022-09-28T17:43:15.476Z,99710.56
2022-09-28T17:45:44.910Z,99711.19
2022-09-28T17:48:16.131Z,99715.38
2022-09-28T17:50:46.400Z,99720.84
2022-09-28T17:53:14.141Z,99713.81
2022-09-28T17:55:43.041Z,99719.25
2022-09-28T17:58:18.105Z,99719.69
2022-09-28T18:00:48.873Z,99736.94
2022-09-28T18:03:18.054Z,99730.06
2022-09-28T18:05:44.973Z,99733.81
2022-09-28T18:08:13.291Z,99733.19
2022-09-28T18:10:40.403Z,99733.06
2022-09-28T18:13:07.225Z,99743.59
2022-09-28T18:15:34.192Z,99740.38
2022-09-28T18:18:01.442Z,99748.91
2022-09-28T18:20:28.674Z,99746.50
2022-09-28T18:22:56.200Z,99752.38
2022-09-28T18:25:24.055Z,99760.34
2022-09-28T18:27:53.200Z,99768.63
2022-09-28T18:30:20.154Z,99764.09
2022-09-28T18:32:47.393Z,99766.19
2022-09-28T18:35:14.522Z,99770.16
2022-09-28T18:37:41.509Z,99774.03
2022-09-28T18:40:09.799Z,99766.78
2022-09-28T18:42:37.951Z,99769.63
2022-09-28T18:45:06.513Z,99775.06
2022-09-28T18:47:37.765Z,99782.72
2022-09-28T18:50:04.917Z,99789.97
2022-09-28T18:52:32.128Z,99787.53
2022-09-28T18:54:58.931Z,99786.28
2022-09-28T18:57:26.523Z,99794.31
2022-09-28T18:59:56.336Z,99792.09
2022-09-28T19:02:23.535Z,99792.25
2022-09-28T19:04:50.393Z,99798.16
2022-09-28T19:07:17.338Z,99796.63
2022-09-28T19:09:44.290Z,99795.13
2022-09-28T19:12:12.741Z,99796.41
2022-09-28T19:14:39.961Z,99799.16
2022-09-28T19:17:07.012Z,99797.75
2022-09-28T19:19:34.038Z,99796.09
2022-09-28T19:22:01.211Z,99803.94
2022-09-28T19:24:29.239Z,99800.53
2022-09-28T19:26:56.887Z,99801.63
2022-09-28T19:29:24.308Z,99798.59
2022-09-28T19:31:51.830Z,99796.16
2022-09-28T19:34:24.371Z,99805.97
2022-09-28T19:36:51.420Z,99796.94
2022-09-28T19:39:18.484Z,99802.97
2022-09-28T19:41:52.800Z,99808.94
2022-09-28T19:44:28.535Z,99800.19
2022-09-28T19:46:57.810Z,99803.38
2022-09-28T19:49:26.104Z,99803.38
2022-09-28T19:52:13.830Z,99813.16
2022-09-28T19:54:44.034Z,99810.25
2022-09-28T19:57:11.772Z,99810.75
2022-09-28T19:59:38.970Z,99812.22
2022-09-28T20:02:07.077Z,99813.53
2022-09-28T20:04:34.039Z,99809.63
2022-09-28T20:07:01.923Z,99814.41
2022-09-28T20:09:29.135Z,99815.22
2022-09-28T20:11:56.253Z,99816.34
2022-09-28T20:14:24.685Z,99822.59
2022-09-28T20:16:54.877Z,99818.78
2022-09-28T20:19:23.166Z,99828.38
2022-09-28T20:21:50.558Z,99830.34
2022-09-28T20:24:18.025Z,99827.16
2022-09-28T20:26:46.012Z,99829.06
2022-09-28T20:29:13.077Z,99835.59
2022-09-28T20:31:40.065Z,99839.03
2022-09-28T20:34:07.032Z,99841.38
2022-09-28T20:36:34.469Z,99834.25
2022-09-28T20:39:02.116Z,99835.28
2022-09-28T20:41:35.650Z,99840.25
2022-09-28T20:44:05.604Z,99840.03
2022-09-28T20:46:35.634Z,99844.81
2022-09-28T20:49:02.758Z,99840.25
2022-09-28T20:51:30.177Z,99840.03
2022-09-28T20:53:57.951Z,99849.66
2022-09-28T20:56:29.111Z,99849.94
2022-09-28T20:58:57.021Z,99856.28
2022-09-28T21:01:25.344Z,99841.66
2022-09-28T21:03:53.648Z,99846.41
2022-09-28T21:06:22.110Z,99849.56
2022-09-28T21:08:49.722Z,99855.06
2022-09-28T21:11:17.853Z,99856.00
2022-09-28T21:13:44.928Z,99858.06
2022-09-28T21:16:12.775Z,99860.50
2022-09-28T21:18:39.802Z,99864.19
2022-09-28T21:21:13.252Z,99870.00
2022-09-28T21:23:40.280Z,99866.16
2022-09-28T21:26:08.680Z,99870.72
2022-09-28T21:28:36.829Z,99868.50
2022-09-28T21:31:05.701Z,99879.25
2022-09-28T21:33:33.080Z,99880.47
2022-09-28T21:36:03.907Z,99881.53
2022-09-28T21:38:31.150Z,99875.56
2022-09-28T21:40:59.059Z,99877.13
2022-09-28T21:43:30.056Z,99885.06
2022-09-28T21:45:58.268Z,99888.56
2022-09-28T21:48:26.271Z,99890.34
2022-09-28T21:50:56.688Z,99887.81
2022-09-28T21:53:24.447Z,99891.34
2022-09-28T21:55:55.887Z,99893.97
2022-09-28T21:58:23.897Z,99899.59
2022-09-28T22:01:01.329Z,99902.63
2022-09-28T22:03:29.223Z,99905.34
2022-09-28T22:05:55.984Z,99906.56
2022-09-28T22:08:22.968Z,99906.59
2022-09-28T22:11:03.347Z,99904.88
2022-09-28T22:13:31.190Z,99909.09
2022-09-28T22:15:59.121Z,99904.06
2022-09-28T22:18:27.035Z,99914.50
2022-09-28T22:21:00.496Z,99918.88
2022-09-28T22:23:28.195Z,99914.22
2022-09-28T22:26:01.780Z,99919.06
2022-09-28T22:28:28.899Z,99919.06
2022-09-28T22:30:56.262Z,99921.53
2022-09-28T22:33:23.419Z,99915.44
2022-09-28T22:35:51.435Z,99926.91
2022-09-28T22:38:18.912Z,99922.53
2022-09-28T22:40:49.738Z,99925.25
2022-09-28T22:43:16.936Z,99918.91
2022-09-28T22:45:43.831Z,99921.22
2022-09-28T22:48:10.655Z,99925.06
2022-09-28T22:50:39.023Z,99929.41
2022-09-28T22:53:06.244Z,99928.41
2022-09-28T22:55:35.753Z,99931.00
2022-09-28T22:58:02.769Z,99934.41
2022-09-28T23:00:30.800Z,99936.34
2022-09-28T23:02:57.990Z,99932.59
2022-09-28T23:05:25.087Z,99934.41
2022-09-28T23:07:51.771Z,99935.50
2022-09-28T23:10:18.580Z,99935.03
2022-09-28T23:12:45.568Z,99935.19
2022-09-28T23:15:12.553Z,99935.09
2022-09-28T23:17:39.380Z,99941.56
2022-09-28T23:20:06.491Z,99944.34
2022-09-28T23:22:33.317Z,99943.59
2022-09-28T23:25:00.101Z,99949.25
2022-09-28T23:27:26.998Z,99936.84
2022-09-28T23:29:54.463Z,99939.66
2022-09-28T23:32:21.248Z,99938.78
2022-09-28T23:34:48.219Z,99938.72
2022-09-28T23:37:14.976Z,99941.41
2022-09-28T23:39:42.393Z,99940.44
2022-09-28T23:42:09.354Z,99942.44
2022-09-28T23:44:36.599Z,99938.50
2022-09-28T23:47:03.401Z,99940.19
2022-09-28T23:49:30.639Z,99938.50
2022-09-28T23:51:57.335Z,99944.75
2022-09-28T23:54:24.062Z,99946.16
2022-09-28T23:56:51.181Z,99944.84
2022-09-28T23:59:17.884Z,99938.38
